sensor_id;sensor_type;location;lat;lon;timestamp;temperature;humidity
44215;DHT22;29884;47.450;19.124;2022-09-09T00:02:03;18.10;99.90
44215;DHT22;29884;47.450;19.124;2022-09-09T00:04:37;18.10;99.90
44215;DHT22;29884;47.450;19.124;2022-09-09T00:17:35;18.00;99.90
44215;DHT22;29884;47.450;19.124;2022-09-09T00:20:28;18.00;99.90
44215;DHT22;29884;47.450;19.124;2022-09-09T00:23:22;18.00;99.90
44215;DHT22;29884;47.450;19.124;2022-09-09T00:31:20;17.90;99.90
44215;DHT22;29884;47.450;19.124;2022-09-09T00:33:49;17.80;99.90
44215;DHT22;29884;47.450;19.124;2022-09-09T00:36:20;17.80;99.90
44215;DHT22;29884;47.450;19.124;2022-09-09T00:38:55;17.90;99.90
44215;DHT22;29884;47.450;19.124;2022-09-09T00:41:22;17.80;99.90
44215;DHT22;29884;47.450;19.124;2022-09-09T00:44:44;17.80;99.90
44215;DHT22;29884;47.450;19.124;2022-09-09T00:49:24;17.80;99.90
44215;DHT22;29884;47.450;19.124;2022-09-09T00:54:47;17.80;99.90
44215;DHT22;29884;47.450;19.124;2022-09-09T00:57:32;17.90;99.90
44215;DHT22;29884;47.450;19.124;2022-09-09T01:14:19;17.70;99.90
44215;DHT22;29884;47.450;19.124;2022-09-09T01:16:54;17.70;99.90
44215;DHT22;29884;47.450;19.124;2022-09-09T01:19:44;17.70;99.90
44215;DHT22;29884;47.450;19.124;2022-09-09T01:22:26;17.80;99.90
44215;DHT22;29884;47.450;19.124;2022-09-09T01:27:36;17.80;99.90
44215;DHT22;29884;47.450;19.124;2022-09-09T01:30:11;17.80;99.90
44215;DHT22;29884;47.450;19.124;2022-09-09T01:32:48;17.70;99.90
44215;DHT22;29884;47.450;19.124;2022-09-09T01:35:46;17.70;99.90
44215;DHT22;29884;47.450;19.124;2022-09-09T01:38:14;17.70;99.90
44215;DHT22;29884;47.450;19.124;2022-09-09T01:40:40;17.60;99.90
44215;DHT22;29884;47.450;19.124;2022-09-09T01:43:06;17.60;99.90
44215;DHT22;29884;47.450;19.124;2022-09-09T01:45:33;17.60;99.90
44215;DHT22;29884;47.450;19.124;2022-09-09T01:47:59;17.70;99.90
44215;DHT22;29884;47.450;19.124;2022-09-09T01:50:25;17.70;99.90
44215;DHT22;29884;47.450;19.124;2022-09-09T01:52:55;17.70;99.90
44215;DHT22;29884;47.450;19.124;2022-09-09T01:55:38;17.60;99.90
44215;DHT22;29884;47.450;19.124;2022-09-09T01:58:14;17.70;99.90
44215;DHT22;29884;47.450;19.124;2022-09-09T02:00:50;17.70;99.90
44215;DHT22;29884;47.450;19.124;2022-09-09T02:03:27;17.60;99.90
44215;DHT22;29884;47.450;19.124;2022-09-09T02:06:16;17.60;99.90
44215;DHT22;29884;47.450;19.124;2022-09-09T02:08:49;17.60;99.90
44215;DHT22;29884;47.450;19.124;2022-09-09T02:11:20;17.60;99.90
44215;DHT22;29884;47.450;19.124;2022-09-09T02:13:48;17.60;99.90
44215;DHT22;29884;47.450;19.124;2022-09-09T02:16:50;17.60;99.90
44215;DHT22;29884;47.450;19.124;2022-09-09T02:19:19;17.60;99.90
44215;DHT22;29884;47.450;19.124;2022-09-09T02:21:51;17.60;99.90
44215;DHT22;29884;47.450;19.124;2022-09-09T02:24:18;17.60;99.90
44215;DHT22;29884;47.450;19.124;2022-09-09T02:26:45;17.50;99.90
44215;DHT22;29884;47.450;19.124;2022-09-09T02:29:24;17.40;99.90
44215;DHT22;29884;47.450;19.124;2022-09-09T02:31:51;17.50;99.90
44215;DHT22;29884;47.450;19.124;2022-09-09T02:34:21;17.50;99.90
44215;DHT22;29884;47.450;19.124;2022-09-09T02:36:49;17.50;99.90
44215;DHT22;29884;47.450;19.124;2022-09-09T02:39:16;17.50;99.90
44215;DHT22;29884;47.450;19.124;2022-09-09T02:41:42;17.50;99.90
44215;DHT22;29884;47.450;19.124;2022-09-09T02:44:12;17.50;99.90
44215;DHT22;29884;47.450;19.124;2022-09-09T02:46:46;17.50;99.90
44215;DHT22;29884;47.450;19.124;2022-09-09T02:52:15;17.50;99.90
44215;DHT22;29884;47.450;19.124;2022-09-09T02:54:44;17.30;99.90
44215;DHT22;29884;47.450;19.124;2022-09-09T02:57:19;17.30;99.90
44215;DHT22;29884;47.450;19.124;2022-09-09T02:59:47;17.30;99.90
44215;DHT22;29884;47.450;19.124;2022-09-09T03:02:14;17.30;99.90
44215;DHT22;29884;47.450;19.124;2022-09-09T03:04:40;17.30;99.90
44215;DHT22;29884;47.450;19.124;2022-09-09T03:07:07;17.40;99.90
44215;DHT22;29884;47.450;19.124;2022-09-09T03:09:33;17.40;99.90
44215;DHT22;29884;47.450;19.124;2022-09-09T03:11:59;17.40;99.90
44215;DHT22;29884;47.450;19.124;2022-09-09T03:14:24;17.40;99.90
44215;DHT22;29884;47.450;19.124;2022-09-09T03:16:54;17.40;99.90
44215;DHT22;29884;47.450;19.124;2022-09-09T03:19:20;17.40;99.90
44215;DHT22;29884;47.450;19.124;2022-09-09T03:21:46;17.40;99.90
44215;DHT22;29884;47.450;19.124;2022-09-09T03:24:13;17.30;99.90
44215;DHT22;29884;47.450;19.124;2022-09-09T03:26:40;17.30;99.90
44215;DHT22;29884;47.450;19.124;2022-09-09T03:29:07;17.30;99.90
44215;DHT22;29884;47.450;19.124;2022-09-09T03:31:33;17.20;99.90
44215;DHT22;29884;47.450;19.124;2022-09-09T03:33:59;17.20;99.90
44215;DHT22;29884;47.450;19.124;2022-09-09T03:36:26;17.30;99.90
44215;DHT22;29884;47.450;19.124;2022-09-09T03:38:52;17.30;99.90
44215;DHT22;29884;47.450;19.124;2022-09-09T03:41:20;17.30;99.90
44215;DHT22;29884;47.450;19.124;2022-09-09T03:43:47;17.20;99.90
44215;DHT22;29884;47.450;19.124;2022-09-09T03:46:13;17.20;99.90
44215;DHT22;29884;47.450;19.124;2022-09-09T03:48:38;17.20;99.90
44215;DHT22;29884;47.450;19.124;2022-09-09T03:51:04;17.20;99.90
44215;DHT22;29884;47.450;19.124;2022-09-09T03:53:30;17.30;99.90
44215;DHT22;29884;47.450;19.124;2022-09-09T03:55:57;17.20;99.90
44215;DHT22;29884;47.450;19.124;2022-09-09T03:58:25;17.20;99.90
44215;DHT22;29884;47.450;19.124;2022-09-09T04:01:00;17.20;99.90
44215;DHT22;29884;47.450;19.124;2022-09-09T04:03:26;17.10;99.90
44215;DHT22;29884;47.450;19.124;2022-09-09T04:05:52;17.10;99.90
44215;DHT22;29884;47.450;19.124;2022-09-09T04:08:20;17.00;99.90
44215;DHT22;29884;47.450;19.124;2022-09-09T04:10:47;17.00;99.90
44215;DHT22;29884;47.450;19.124;2022-09-09T04:13:13;17.00;99.90
44215;DHT22;29884;47.450;19.124;2022-09-09T04:15:40;17.00;99.90
44215;DHT22;29884;47.450;19.124;2022-09-09T04:18:07;17.00;99.90
44215;DHT22;29884;47.450;19.124;2022-09-09T04:20:32;17.00;99.90
44215;DHT22;29884;47.450;19.124;2022-09-09T04:22:58;17.00;99.90
44215;DHT22;29884;47.450;19.124;2022-09-09T04:25:24;17.00;99.90
44215;DHT22;29884;47.450;19.124;2022-09-09T04:27:54;17.00;99.90
44215;DHT22;29884;47.450;19.124;2022-09-09T04:30:21;17.00;99.90
44215;DHT22;29884;47.450;19.124;2022-09-09T04:32:46;17.00;99.90
44215;DHT22;29884;47.450;19.124;2022-09-09T04:35:12;17.00;99.90
44215;DHT22;29884;47.450;19.124;2022-09-09T04:37:38;17.00;99.90
44215;DHT22;29884;47.450;19.124;2022-09-09T04:40:04;17.00;99.90
44215;DHT22;29884;47.450;19.124;2022-09-09T04:42:37;17.00;99.90
44215;DHT22;29884;47.450;19.124;2022-09-09T04:45:04;17.00;99.90
44215;DHT22;29884;47.450;19.124;2022-09-09T04:47:29;17.00;99.90
44215;DHT22;29884;47.450;19.124;2022-09-09T04:49:55;17.00;99.90
44215;DHT22;29884;47.450;19.124;2022-09-09T04:52:22;17.10;99.90
44215;DHT22;29884;47.450;19.124;2022-09-09T04:54:48;17.00;99.90
44215;DHT22;29884;47.450;19.124;2022-09-09T04:57:13;17.00;99.90
44215;DHT22;29884;47.450;19.124;2022-09-09T04:59:39;17.00;99.90
44215;DHT22;29884;47.450;19.124;2022-09-09T05:02:05;17.00;99.90
44215;DHT22;29884;47.450;19.124;2022-09-09T05:04:32;17.00;99.90
44215;DHT22;29884;47.450;19.124;2022-09-09T05:06:58;17.10;99.90
44215;DHT22;29884;47.450;19.124;2022-09-09T05:09:24;17.10;99.90
44215;DHT22;29884;47.450;19.124;2022-09-09T05:11:50;17.10;99.90
44215;DHT22;29884;47.450;19.124;2022-09-09T05:14:17;17.10;99.90
44215;DHT22;29884;47.450;19.124;2022-09-09T05:16:44;17.20;99.90
44215;DHT22;29884;47.450;19.124;2022-09-09T05:19:10;17.20;99.90
44215;DHT22;29884;47.450;19.124;2022-09-09T05:21:37;17.20;99.90
44215;DHT22;29884;47.450;19.124;2022-09-09T05:24:03;17.30;99.90
44215;DHT22;29884;47.450;19.124;2022-09-09T05:26:29;17.30;99.90
44215;DHT22;29884;47.450;19.124;2022-09-09T05:28:55;17.40;99.90
44215;DHT22;29884;47.450;19.124;2022-09-09T05:31:21;17.40;99.90
44215;DHT22;29884;47.450;19.124;2022-09-09T05:33:48;17.50;99.90
44215;DHT22;29884;47.450;19.124;2022-09-09T05:36:19;17.60;99.90
44215;DHT22;29884;47.450;19.124;2022-09-09T05:38:46;17.60;99.90
44215;DHT22;29884;47.450;19.124;2022-09-09T05:41:12;17.80;99.90
44215;DHT22;29884;47.450;19.124;2022-09-09T05:43:38;17.80;99.90
44215;DHT22;29884;47.450;19.124;2022-09-09T05:46:09;17.90;99.90
44215;DHT22;29884;47.450;19.124;2022-09-09T05:48:37;18.00;99.90
44215;DHT22;29884;47.450;19.124;2022-09-09T05:51:05;18.10;99.90
44215;DHT22;29884;47.450;19.124;2022-09-09T05:53:32;18.10;99.90
44215;DHT22;29884;47.450;19.124;2022-09-09T05:58:32;18.30;99.90
44215;DHT22;29884;47.450;19.124;2022-09-09T06:01:10;18.30;99.90
44215;DHT22;29884;47.450;19.124;2022-09-09T06:03:37;18.50;99.90
44215;DHT22;29884;47.450;19.124;2022-09-09T06:06:05;18.60;99.90
44215;DHT22;29884;47.450;19.124;2022-09-09T06:08:33;18.60;99.90
44215;DHT22;29884;47.450;19.124;2022-09-09T06:11:06;18.60;99.90
44215;DHT22;29884;47.450;19.124;2022-09-09T06:13:32;18.60;99.90
44215;DHT22;29884;47.450;19.124;2022-09-09T06:15:58;18.60;99.90
44215;DHT22;29884;47.450;19.124;2022-09-09T06:18:26;18.60;99.90
44215;DHT22;29884;47.450;19.124;2022-09-09T06:20:55;18.60;99.90
44215;DHT22;29884;47.450;19.124;2022-09-09T06:23:21;18.70;99.90
44215;DHT22;29884;47.450;19.124;2022-09-09T06:25:47;18.70;99.90
44215;DHT22;29884;47.450;19.124;2022-09-09T06:28:14;18.80;99.90
44215;DHT22;29884;47.450;19.124;2022-09-09T06:30:40;18.80;99.90
44215;DHT22;29884;47.450;19.124;2022-09-09T06:33:06;18.90;99.90
44215;DHT22;29884;47.450;19.124;2022-09-09T06:35:32;19.00;99.90
44215;DHT22;29884;47.450;19.124;2022-09-09T06:37:58;19.00;99.90
44215;DHT22;29884;47.450;19.124;2022-09-09T06:40:24;19.00;99.90
44215;DHT22;29884;47.450;19.124;2022-09-09T06:42:50;19.20;99.90
44215;DHT22;29884;47.450;19.124;2022-09-09T06:45:16;19.20;99.90
44215;DHT22;29884;47.450;19.124;2022-09-09T06:47:43;19.30;99.90
44215;DHT22;29884;47.450;19.124;2022-09-09T06:50:09;19.40;99.90
44215;DHT22;29884;47.450;19.124;2022-09-09T06:52:35;19.50;99.90
44215;DHT22;29884;47.450;19.124;2022-09-09T06:55:01;19.50;99.90
44215;DHT22;29884;47.450;19.124;2022-09-09T06:57:28;19.50;99.90
44215;DHT22;29884;47.450;19.124;2022-09-09T06:59:53;19.50;99.90
44215;DHT22;29884;47.450;19.124;2022-09-09T07:02:19;19.60;99.90
44215;DHT22;29884;47.450;19.124;2022-09-09T07:04:45;19.70;99.90
44215;DHT22;29884;47.450;19.124;2022-09-09T07:07:11;19.80;99.90
44215;DHT22;29884;47.450;19.124;2022-09-09T07:09:39;19.80;99.90
44215;DHT22;29884;47.450;19.124;2022-09-09T07:12:06;19.70;99.90
44215;DHT22;29884;47.450;19.124;2022-09-09T07:14:32;19.70;99.90
44215;DHT22;29884;47.450;19.124;2022-09-09T07:16:59;19.70;99.90
44215;DHT22;29884;47.450;19.124;2022-09-09T07:19:25;19.60;99.90
44215;DHT22;29884;47.450;19.124;2022-09-09T07:21:51;19.60;99.90
44215;DHT22;29884;47.450;19.124;2022-09-09T07:24:17;19.60;99.90
44215;DHT22;29884;47.450;19.124;2022-09-09T07:26:43;19.70;99.90
44215;DHT22;29884;47.450;19.124;2022-09-09T07:29:09;19.80;99.90
44215;DHT22;29884;47.450;19.124;2022-09-09T07:31:39;20.00;99.90
44215;DHT22;29884;47.450;19.124;2022-09-09T07:34:05;20.30;99.90
44215;DHT22;29884;47.450;19.124;2022-09-09T07:36:36;20.50;99.90
44215;DHT22;29884;47.450;19.124;2022-09-09T07:39:08;20.50;99.90
44215;DHT22;29884;47.450;19.124;2022-09-09T07:41:40;20.40;99.90
44215;DHT22;29884;47.450;19.124;2022-09-09T07:44:10;20.60;99.90
44215;DHT22;29884;47.450;19.124;2022-09-09T07:46:37;20.90;99.90
44215;DHT22;29884;47.450;19.124;2022-09-09T07:49:05;21.00;99.90
44215;DHT22;29884;47.450;19.124;2022-09-09T07:51:34;21.20;99.90
44215;DHT22;29884;47.450;19.124;2022-09-09T07:54:02;21.30;99.90
44215;DHT22;29884;47.450;19.124;2022-09-09T07:56:29;21.30;99.90
44215;DHT22;29884;47.450;19.124;2022-09-09T07:58:56;21.30;99.90
44215;DHT22;29884;47.450;19.124;2022-09-09T08:01:33;21.30;99.90
44215;DHT22;29884;47.450;19.124;2022-09-09T08:04:08;21.40;99.90
44215;DHT22;29884;47.450;19.124;2022-09-09T08:06:43;21.70;99.90
44215;DHT22;29884;47.450;19.124;2022-09-09T08:09:10;22.00;99.90
44215;DHT22;29884;47.450;19.124;2022-09-09T08:11:36;22.10;99.90
44215;DHT22;29884;47.450;19.124;2022-09-09T08:14:02;22.20;99.90
44215;DHT22;29884;47.450;19.124;2022-09-09T08:16:31;22.30;99.90
44215;DHT22;29884;47.450;19.124;2022-09-09T08:18:57;22.50;99.90
44215;DHT22;29884;47.450;19.124;2022-09-09T08:21:28;22.40;99.90
44215;DHT22;29884;47.450;19.124;2022-09-09T08:23:55;22.50;99.90
44215;DHT22;29884;47.450;19.124;2022-09-09T08:26:23;22.70;99.90
44215;DHT22;29884;47.450;19.124;2022-09-09T08:28:51;22.80;99.90
44215;DHT22;29884;47.450;19.124;2022-09-09T08:31:23;22.90;99.90
44215;DHT22;29884;47.450;19.124;2022-09-09T08:33:49;23.00;99.90
44215;DHT22;29884;47.450;19.124;2022-09-09T08:36:18;23.20;99.90
44215;DHT22;29884;47.450;19.124;2022-09-09T08:38:48;23.30;99.90
44215;DHT22;29884;47.450;19.124;2022-09-09T08:51:32;23.80;99.90
44215;DHT22;29884;47.450;19.124;2022-09-09T08:54:00;24.00;99.90
44215;DHT22;29884;47.450;19.124;2022-09-09T08:56:28;23.90;99.90
44215;DHT22;29884;47.450;19.124;2022-09-09T08:58:57;24.00;99.90
44215;DHT22;29884;47.450;19.124;2022-09-09T09:04:37;24.20;99.90
44215;DHT22;29884;47.450;19.124;2022-09-09T09:09:55;24.50;99.90
44215;DHT22;29884;47.450;19.124;2022-09-09T09:12:27;24.50;99.90
44215;DHT22;29884;47.450;19.124;2022-09-09T09:14:54;24.50;99.90
44215;DHT22;29884;47.450;19.124;2022-09-09T09:17:26;24.50;99.90
44215;DHT22;29884;47.450;19.124;2022-09-09T09:19:53;24.80;99.90
44215;DHT22;29884;47.450;19.124;2022-09-09T09:28:03;24.80;99.90
44215;DHT22;29884;47.450;19.124;2022-09-09T09:33:08;25.30;99.90
44215;DHT22;29884;47.450;19.124;2022-09-09T09:35:36;25.40;99.90
44215;DHT22;29884;47.450;19.124;2022-09-09T09:38:21;25.50;99.90
44215;DHT22;29884;47.450;19.124;2022-09-09T09:40:57;25.60;99.90
44215;DHT22;29884;47.450;19.124;2022-09-09T09:43:37;25.50;99.90
44215;DHT22;29884;47.450;19.124;2022-09-09T09:46:19;25.40;99.90
44215;DHT22;29884;47.450;19.124;2022-09-09T09:48:45;25.40;99.90
44215;DHT22;29884;47.450;19.124;2022-09-09T09:51:22;25.60;99.90
44215;DHT22;29884;47.450;19.124;2022-09-09T09:53:49;26.00;99.90
44215;DHT22;29884;47.450;19.124;2022-09-09T09:56:15;26.10;99.90
44215;DHT22;29884;47.450;19.124;2022-09-09T10:03:54;26.10;99.50
44215;DHT22;29884;47.450;19.124;2022-09-09T10:06:32;26.20;99.90
44215;DHT22;29884;47.450;19.124;2022-09-09T10:08:59;26.50;99.90
44215;DHT22;29884;47.450;19.124;2022-09-09T10:11:30;26.80;98.20
44215;DHT22;29884;47.450;19.124;2022-09-09T10:19:37;26.50;95.40
44215;DHT22;29884;47.450;19.124;2022-09-09T10:22:26;26.70;93.70
44215;DHT22;29884;47.450;19.124;2022-09-09T10:27:31;26.90;95.10
44215;DHT22;29884;47.450;19.124;2022-09-09T10:30:05;27.00;94.90
44215;DHT22;29884;47.450;19.124;2022-09-09T10:40:45;27.00;94.80
44215;DHT22;29884;47.450;19.124;2022-09-09T10:56:14;27.50;91.90
44215;DHT22;29884;47.450;19.124;2022-09-09T10:58:47;27.30;91.20
44215;DHT22;29884;47.450;19.124;2022-09-09T11:01:31;27.40;91.50
44215;DHT22;29884;47.450;19.124;2022-09-09T11:04:10;27.30;90.70
44215;DHT22;29884;47.450;19.124;2022-09-09T11:06:42;27.40;90.80
44215;DHT22;29884;47.450;19.124;2022-09-09T11:09:16;27.40;90.00
44215;DHT22;29884;47.450;19.124;2022-09-09T11:17:04;27.30;87.40
44215;DHT22;29884;47.450;19.124;2022-09-09T11:19:39;27.20;89.40
44215;DHT22;29884;47.450;19.124;2022-09-09T11:22:14;27.30;89.80
44215;DHT22;29884;47.450;19.124;2022-09-09T11:24:45;27.30;90.20
44215;DHT22;29884;47.450;19.124;2022-09-09T11:27:29;27.50;90.20
44215;DHT22;29884;47.450;19.124;2022-09-09T11:32:45;27.60;86.80
44215;DHT22;29884;47.450;19.124;2022-09-09T11:41:06;27.60;86.50
44215;DHT22;29884;47.450;19.124;2022-09-09T11:43:41;27.40;86.50
44215;DHT22;29884;47.450;19.124;2022-09-09T11:46:08;27.60;85.90
44215;DHT22;29884;47.450;19.124;2022-09-09T11:48:42;27.50;84.60
44215;DHT22;29884;47.450;19.124;2022-09-09T11:54:02;27.40;85.00
44215;DHT22;29884;47.450;19.124;2022-09-09T11:56:43;27.50;84.10
44215;DHT22;29884;47.450;19.124;2022-09-09T11:59:28;27.40;82.10
44215;DHT22;29884;47.450;19.124;2022-09-09T12:02:29;27.70;84.30
44215;DHT22;29884;47.450;19.124;2022-09-09T12:05:07;27.70;80.80
44215;DHT22;29884;47.450;19.124;2022-09-09T12:07:52;28.10;83.40
44215;DHT22;29884;47.450;19.124;2022-09-09T12:10:26;28.40;80.90
44215;DHT22;29884;47.450;19.124;2022-09-09T12:12:52;28.10;79.40
44215;DHT22;29884;47.450;19.124;2022-09-09T12:15:28;27.80;78.50
44215;DHT22;29884;47.450;19.124;2022-09-09T12:17:58;27.50;79.50
44215;DHT22;29884;47.450;19.124;2022-09-09T12:20:34;27.30;81.50
44215;DHT22;29884;47.450;19.124;2022-09-09T12:28:39;27.10;82.50
44215;DHT22;29884;47.450;19.124;2022-09-09T12:31:17;27.10;83.00
44215;DHT22;29884;47.450;19.124;2022-09-09T12:33:46;27.20;85.40
44215;DHT22;29884;47.450;19.124;2022-09-09T12:36:36;27.10;85.00
44215;DHT22;29884;47.450;19.124;2022-09-09T12:39:16;27.00;85.00
44215;DHT22;29884;47.450;19.124;2022-09-09T12:41:51;27.10;83.70
44215;DHT22;29884;47.450;19.124;2022-09-09T12:44:22;27.30;82.70
44215;DHT22;29884;47.450;19.124;2022-09-09T12:46:48;27.40;83.30
44215;DHT22;29884;47.450;19.124;2022-09-09T12:49:35;27.50;83.60
44215;DHT22;29884;47.450;19.124;2022-09-09T12:52:29;27.50;85.10
44215;DHT22;29884;47.450;19.124;2022-09-09T12:54:59;27.30;83.80
44215;DHT22;29884;47.450;19.124;2022-09-09T12:57:26;27.10;84.20
44215;DHT22;29884;47.450;19.124;2022-09-09T13:00:06;26.80;85.30
44215;DHT22;29884;47.450;19.124;2022-09-09T13:02:33;26.70;87.40
44215;DHT22;29884;47.450;19.124;2022-09-09T13:05:13;26.70;86.50
44215;DHT22;29884;47.450;19.124;2022-09-09T13:07:40;26.70;87.40
44215;DHT22;29884;47.450;19.124;2022-09-09T13:10:07;27.10;86.10
44215;DHT22;29884;47.450;19.124;2022-09-09T13:12:35;27.20;84.20
44215;DHT22;29884;47.450;19.124;2022-09-09T13:15:01;26.80;85.60
44215;DHT22;29884;47.450;19.124;2022-09-09T13:17:28;26.80;86.70
44215;DHT22;29884;47.450;19.124;2022-09-09T13:19:57;26.70;88.10
44215;DHT22;29884;47.450;19.124;2022-09-09T13:22:35;26.50;86.20
44215;DHT22;29884;47.450;19.124;2022-09-09T13:28:01;26.40;86.30
44215;DHT22;29884;47.450;19.124;2022-09-09T13:35:30;26.40;85.60
44215;DHT22;29884;47.450;19.124;2022-09-09T13:37:56;26.30;85.20
44215;DHT22;29884;47.450;19.124;2022-09-09T13:40:23;26.30;85.90
44215;DHT22;29884;47.450;19.124;2022-09-09T13:42:55;26.10;85.60
44215;DHT22;29884;47.450;19.124;2022-09-09T13:45:24;26.00;85.60
44215;DHT22;29884;47.450;19.124;2022-09-09T13:47:53;26.10;85.80
44215;DHT22;29884;47.450;19.124;2022-09-09T13:50:30;26.10;84.30
44215;DHT22;29884;47.450;19.124;2022-09-09T13:52:58;26.10;82.70
44215;DHT22;29884;47.450;19.124;2022-09-09T13:55:25;26.10;82.70
44215;DHT22;29884;47.450;19.124;2022-09-09T14:00:21;26.30;77.00
44215;DHT22;29884;47.450;19.124;2022-09-09T14:02:47;26.50;78.80
44215;DHT22;29884;47.450;19.124;2022-09-09T14:05:13;26.90;77.90
44215;DHT22;29884;47.450;19.124;2022-09-09T14:07:41;27.20;76.90
44215;DHT22;29884;47.450;19.124;2022-09-09T14:10:08;27.40;78.20
44215;DHT22;29884;47.450;19.124;2022-09-09T14:12:35;27.20;77.50
44215;DHT22;29884;47.450;19.124;2022-09-09T14:15:05;26.80;79.70
44215;DHT22;29884;47.450;19.124;2022-09-09T14:17:31;26.40;79.30
44215;DHT22;29884;47.450;19.124;2022-09-09T14:19:58;26.20;81.10
44215;DHT22;29884;47.450;19.124;2022-09-09T14:22:24;26.20;80.10
44215;DHT22;29884;47.450;19.124;2022-09-09T14:24:51;26.40;79.00
44215;DHT22;29884;47.450;19.124;2022-09-09T14:27:17;26.40;78.90
44215;DHT22;29884;47.450;19.124;2022-09-09T14:29:44;26.30;78.00
44215;DHT22;29884;47.450;19.124;2022-09-09T14:32:11;26.20;77.10
44215;DHT22;29884;47.450;19.124;2022-09-09T14:34:37;26.10;80.20
44215;DHT22;29884;47.450;19.124;2022-09-09T14:37:03;26.10;79.70
44215;DHT22;29884;47.450;19.124;2022-09-09T14:39:28;26.20;79.40
44215;DHT22;29884;47.450;19.124;2022-09-09T14:41:54;26.30;81.30
44215;DHT22;29884;47.450;19.124;2022-09-09T14:44:20;26.20;81.80
44215;DHT22;29884;47.450;19.124;2022-09-09T14:46:46;26.10;81.40
44215;DHT22;29884;47.450;19.124;2022-09-09T14:49:11;26.00;79.30
44215;DHT22;29884;47.450;19.124;2022-09-09T14:51:38;26.00;80.50
44215;DHT22;29884;47.450;19.124;2022-09-09T14:54:04;26.00;82.60
44215;DHT22;29884;47.450;19.124;2022-09-09T14:56:32;26.00;78.60
44215;DHT22;29884;47.450;19.124;2022-09-09T14:59:00;26.00;80.90
44215;DHT22;29884;47.450;19.124;2022-09-09T15:01:27;26.00;77.20
44215;DHT22;29884;47.450;19.124;2022-09-09T15:03:58;25.90;78.60
44215;DHT22;29884;47.450;19.124;2022-09-09T15:06:25;25.80;80.80
44215;DHT22;29884;47.450;19.124;2022-09-09T15:08:52;25.70;80.40
44215;DHT22;29884;47.450;19.124;2022-09-09T15:11:19;25.70;81.50
44215;DHT22;29884;47.450;19.124;2022-09-09T15:13:45;25.70;80.20
44215;DHT22;29884;47.450;19.124;2022-09-09T15:16:15;25.60;82.30
44215;DHT22;29884;47.450;19.124;2022-09-09T15:18:42;25.60;83.80
44215;DHT22;29884;47.450;19.124;2022-09-09T15:21:14;25.80;83.20
44215;DHT22;29884;47.450;19.124;2022-09-09T15:23:40;25.90;83.50
44215;DHT22;29884;47.450;19.124;2022-09-09T15:26:06;25.90;85.20
44215;DHT22;29884;47.450;19.124;2022-09-09T15:28:33;25.90;85.40
44215;DHT22;29884;47.450;19.124;2022-09-09T15:31:11;26.10;83.70
44215;DHT22;29884;47.450;19.124;2022-09-09T15:33:40;26.10;82.30
44215;DHT22;29884;47.450;19.124;2022-09-09T15:36:20;26.30;82.20
44215;DHT22;29884;47.450;19.124;2022-09-09T15:38:46;26.10;81.10
44215;DHT22;29884;47.450;19.124;2022-09-09T15:41:15;26.00;83.20
44215;DHT22;29884;47.450;19.124;2022-09-09T15:43:45;25.90;81.40
44215;DHT22;29884;47.450;19.124;2022-09-09T15:48:44;25.60;84.00
44215;DHT22;29884;47.450;19.124;2022-09-09T15:51:10;25.40;82.80
44215;DHT22;29884;47.450;19.124;2022-09-09T15:53:36;25.40;85.10
44215;DHT22;29884;47.450;19.124;2022-09-09T15:56:05;25.30;84.70
44215;DHT22;29884;47.450;19.124;2022-09-09T15:58:32;25.20;83.90
44215;DHT22;29884;47.450;19.124;2022-09-09T16:01:08;25.10;86.70
44215;DHT22;29884;47.450;19.124;2022-09-09T16:03:39;25.10;86.80
44215;DHT22;29884;47.450;19.124;2022-09-09T16:06:08;25.10;86.40
44215;DHT22;29884;47.450;19.124;2022-09-09T16:08:35;25.10;87.10
44215;DHT22;29884;47.450;19.124;2022-09-09T16:11:09;25.00;88.40
44215;DHT22;29884;47.450;19.124;2022-09-09T16:13:36;25.00;88.10
44215;DHT22;29884;47.450;19.124;2022-09-09T16:16:06;24.90;88.00
44215;DHT22;29884;47.450;19.124;2022-09-09T16:18:43;24.80;88.10
44215;DHT22;29884;47.450;19.124;2022-09-09T16:21:32;24.80;90.00
44215;DHT22;29884;47.450;19.124;2022-09-09T16:23:59;24.80;90.10
44215;DHT22;29884;47.450;19.124;2022-09-09T16:26:26;24.80;90.00
44215;DHT22;29884;47.450;19.124;2022-09-09T16:28:52;24.70;90.90
44215;DHT22;29884;47.450;19.124;2022-09-09T16:31:21;24.70;91.00
44215;DHT22;29884;47.450;19.124;2022-09-09T16:33:48;24.60;91.60
44215;DHT22;29884;47.450;19.124;2022-09-09T16:36:22;24.60;91.50
44215;DHT22;29884;47.450;19.124;2022-09-09T16:38:51;24.50;92.10
44215;DHT22;29884;47.450;19.124;2022-09-09T16:41:17;24.40;92.20
44215;DHT22;29884;47.450;19.124;2022-09-09T16:43:43;24.40;92.30
44215;DHT22;29884;47.450;19.124;2022-09-09T16:46:18;24.30;93.10
44215;DHT22;29884;47.450;19.124;2022-09-09T16:48:45;24.20;94.80
44215;DHT22;29884;47.450;19.124;2022-09-09T16:51:17;24.10;95.70
44215;DHT22;29884;47.450;19.124;2022-09-09T16:53:44;24.00;96.60
44215;DHT22;29884;47.450;19.124;2022-09-09T16:56:22;24.00;96.90
44215;DHT22;29884;47.450;19.124;2022-09-09T16:58:56;23.80;97.30
44215;DHT22;29884;47.450;19.124;2022-09-09T17:01:24;23.70;98.00
44215;DHT22;29884;47.450;19.124;2022-09-09T17:04:10;23.60;99.90
44215;DHT22;29884;47.450;19.124;2022-09-09T17:06:36;23.60;99.90
44215;DHT22;29884;47.450;19.124;2022-09-09T17:09:08;23.50;99.90
44215;DHT22;29884;47.450;19.124;2022-09-09T17:11:34;23.40;99.90
44215;DHT22;29884;47.450;19.124;2022-09-09T17:14:00;23.40;99.90
44215;DHT22;29884;47.450;19.124;2022-09-09T17:16:29;23.20;99.90
44215;DHT22;29884;47.450;19.124;2022-09-09T17:18:56;23.10;99.90
44215;DHT22;29884;47.450;19.124;2022-09-09T17:21:25;23.00;99.90
44215;DHT22;29884;47.450;19.124;2022-09-09T17:23:52;22.90;99.90
44215;DHT22;29884;47.450;19.124;2022-09-09T17:26:19;22.90;99.90
44215;DHT22;29884;47.450;19.124;2022-09-09T17:28:47;22.80;99.90
44215;DHT22;29884;47.450;19.124;2022-09-09T17:31:15;22.70;99.90
44215;DHT22;29884;47.450;19.124;2022-09-09T17:33:43;22.50;99.90
44215;DHT22;29884;47.450;19.124;2022-09-09T17:36:13;22.50;99.90
44215;DHT22;29884;47.450;19.124;2022-09-09T17:38:40;22.40;99.90
44215;DHT22;29884;47.450;19.124;2022-09-09T17:41:09;22.30;99.90
44215;DHT22;29884;47.450;19.124;2022-09-09T17:43:36;22.20;99.90
44215;DHT22;29884;47.450;19.124;2022-09-09T17:48:31;22.10;99.90
44215;DHT22;29884;47.450;19.124;2022-09-09T17:51:00;22.10;99.90
44215;DHT22;29884;47.450;19.124;2022-09-09T17:53:26;22.00;99.90